sensor_id;sensor_type;location;lat;lon;timestamp;pressure;altitude;pressure_sealevel;temperature
82297;BMP280;71899;51.992;8.648;2024-01-30T00:01:52;101395.91;;;4.37
82297;BMP280;71899;51.992;8.648;2024-01-30T00:04:17;101397.22;;;4.14
82297;BMP280;71899;51.992;8.648;2024-01-30T00:06:45;101393.94;;;4.50
82297;BMP280;71899;51.992;8.648;2024-01-30T00:09:11;101398.09;;;4.60
82297;BMP280;71899;51.992;8.648;2024-01-30T00:11:37;101394.72;;;4.54
82297;BMP280;71899;51.992;8.648;2024-01-30T00:14:03;101393.44;;;4.31
82297;BMP280;71899;51.992;8.648;2024-01-30T00:16:28;101393.56;;;4.24
82297;BMP280;71899;51.992;8.648;2024-01-30T00:18:54;101392.78;;;4.19
82297;BMP280;71899;51.992;8.648;2024-01-30T00:21:20;101396.59;;;3.98
82297;BMP280;71899;51.992;8.648;2024-01-30T00:23:45;101402.00;;;3.84
82297;BMP280;71899;51.992;8.648;2024-01-30T00:26:11;101395.00;;;3.89
82297;BMP280;71899;51.992;8.648;2024-01-30T00:28:39;101394.47;;;3.69
82297;BMP280;71899;51.992;8.648;2024-01-30T00:31:05;101397.56;;;3.36
82297;BMP280;71899;51.992;8.648;2024-01-30T00:33:30;101385.53;;;3.35
82297;BMP280;71899;51.992;8.648;2024-01-30T00:35:56;101393.78;;;3.60
82297;BMP280;71899;51.992;8.648;2024-01-30T00:38:21;101392.97;;;3.55
82297;BMP280;71899;51.992;8.648;2024-01-30T00:40:48;101391.72;;;3.81
82297;BMP280;71899;51.992;8.648;2024-01-30T00:43:14;101396.66;;;3.95
82297;BMP280;71899;51.992;8.648;2024-01-30T00:45:39;101390.69;;;3.91
82297;BMP280;71899;51.992;8.648;2024-01-30T00:48:05;101396.00;;;3.82
82297;BMP280;71899;51.992;8.648;2024-01-30T00:50:30;101390.69;;;3.90
82297;BMP280;71899;51.992;8.648;2024-01-30T00:52:55;101393.53;;;3.75
82297;BMP280;71899;51.992;8.648;2024-01-30T00:55:21;101393.28;;;3.91
82297;BMP280;71899;51.992;8.648;2024-01-30T00:57:46;101400.06;;;3.97
82297;BMP280;71899;51.992;8.648;2024-01-30T01:00:12;101398.09;;;4.11
82297;BMP280;71899;51.992;8.648;2024-01-30T01:02:38;101384.94;;;3.74
82297;BMP280;71899;51.992;8.648;2024-01-30T01:05:05;101399.06;;;4.06
82297;BMP280;71899;51.992;8.648;2024-01-30T01:07:30;101391.19;;;4.12
82297;BMP280;71899;51.992;8.648;2024-01-30T01:09:55;101387.81;;;4.08
82297;BMP280;71899;51.992;8.648;2024-01-30T01:12:21;101388.59;;;4.12
82297;BMP280;71899;51.992;8.648;2024-01-30T01:14:46;101402.56;;;4.03
82297;BMP280;71899;51.992;8.648;2024-01-30T01:17:12;101394.44;;;4.23
82297;BMP280;71899;51.992;8.648;2024-01-30T01:19:37;101403.31;;;4.10
82297;BMP280;71899;51.992;8.648;2024-01-30T01:22:03;101397.16;;;4.17
82297;BMP280;71899;51.992;8.648;2024-01-30T01:24:30;101399.31;;;3.90
82297;BMP280;71899;51.992;8.648;2024-01-30T01:26:56;101391.09;;;3.66
82297;BMP280;71899;51.992;8.648;2024-01-30T01:29:22;101391.03;;;3.69
82297;BMP280;71899;51.992;8.648;2024-01-30T01:31:53;101396.84;;;3.84
82297;BMP280;71899;51.992;8.648;2024-01-30T01:34:19;101389.16;;;3.78
82297;BMP280;71899;51.992;8.648;2024-01-30T01:36:44;101392.88;;;3.61
82297;BMP280;71899;51.992;8.648;2024-01-30T01:39:09;101384.88;;;3.76
82297;BMP280;71899;51.992;8.648;2024-01-30T01:41:35;101388.44;;;3.70
82297;BMP280;71899;51.992;8.648;2024-01-30T01:44:01;101386.94;;;3.56
82297;BMP280;71899;51.992;8.648;2024-01-30T01:46:27;101384.34;;;3.56
82297;BMP280;71899;51.992;8.648;2024-01-30T01:48:53;101382.09;;;3.34
82297;BMP280;71899;51.992;8.648;2024-01-30T01:51:20;101382.41;;;3.70
82297;BMP280;71899;51.992;8.648;2024-01-30T01:53:45;101379.34;;;3.45
82297;BMP280;71899;51.992;8.648;2024-01-30T01:56:11;101375.00;;;2.84
82297;BMP280;71899;51.992;8.648;2024-01-30T01:58:37;101365.31;;;3.03
82297;BMP280;71899;51.992;8.648;2024-01-30T02:01:03;101372.41;;;2.86
82297;BMP280;71899;51.992;8.648;2024-01-30T02:03:30;101371.78;;;2.66
82297;BMP280;71899;51.992;8.648;2024-01-30T02:05:56;101370.56;;;2.95
82297;BMP280;71899;51.992;8.648;2024-01-30T02:08:23;101362.06;;;2.87
82297;BMP280;71899;51.992;8.648;2024-01-30T02:10:49;101365.72;;;2.70
82297;BMP280;71899;51.992;8.648;2024-01-30T02:13:15;101368.56;;;3.14
82297;BMP280;71899;51.992;8.648;2024-01-30T02:15:40;101359.84;;;3.21
82297;BMP280;71899;51.992;8.648;2024-01-30T02:18:05;101361.41;;;3.33
82297;BMP280;71899;51.992;8.648;2024-01-30T02:20:31;101362.44;;;3.24
82297;BMP280;71899;51.992;8.648;2024-01-30T02:22:58;101361.00;;;3.02
82297;BMP280;71899;51.992;8.648;2024-01-30T02:25:50;101360.16;;;3.02
82297;BMP280;71899;51.992;8.648;2024-01-30T02:28:18;101367.75;;;3.11
82297;BMP280;71899;51.992;8.648;2024-01-30T02:30:45;101360.16;;;3.02
82297;BMP280;71899;51.992;8.648;2024-01-30T02:33:11;101353.16;;;3.08
82297;BMP280;71899;51.992;8.648;2024-01-30T02:35:36;101351.69;;;3.50
82297;BMP280;71899;51.992;8.648;2024-01-30T02:38:02;101349.94;;;3.50
82297;BMP280;71899;51.992;8.648;2024-01-30T02:40:27;101346.84;;;4.30
82297;BMP280;71899;51.992;8.648;2024-01-30T02:42:53;101344.78;;;4.90
82297;BMP280;71899;51.992;8.648;2024-01-30T02:45:18;101326.34;;;5.42
82297;BMP280;71899;51.992;8.648;2024-01-30T02:47:44;101322.88;;;5.77
82297;BMP280;71899;51.992;8.648;2024-01-30T02:50:09;101317.34;;;5.92
82297;BMP280;71899;51.992;8.648;2024-01-30T02:52:35;101327.84;;;6.51
82297;BMP280;71899;51.992;8.648;2024-01-30T02:55:01;101313.91;;;6.53
82297;BMP280;71899;51.992;8.648;2024-01-30T02:57:28;101324.91;;;6.63
82297;BMP280;71899;51.992;8.648;2024-01-30T02:59:53;101319.00;;;6.87
82297;BMP280;71899;51.992;8.648;2024-01-30T03:02:18;101319.63;;;6.95
82297;BMP280;71899;51.992;8.648;2024-01-30T03:04:44;101313.94;;;7.10
82297;BMP280;71899;51.992;8.648;2024-01-30T03:07:10;101314.78;;;7.11
82297;BMP280;71899;51.992;8.648;2024-01-30T03:09:36;101315.22;;;6.97
82297;BMP280;71899;51.992;8.648;2024-01-30T03:12:02;101317.13;;;7.20
82297;BMP280;71899;51.992;8.648;2024-01-30T03:14:30;101300.53;;;7.24
82297;BMP280;71899;51.992;8.648;2024-01-30T03:16:56;101304.81;;;7.25
82297;BMP280;71899;51.992;8.648;2024-01-30T03:19:21;101299.59;;;7.25
82297;BMP280;71899;51.992;8.648;2024-01-30T03:21:46;101286.56;;;7.26
82297;BMP280;71899;51.992;8.648;2024-01-30T03:24:12;101288.06;;;7.33
82297;BMP280;71899;51.992;8.648;2024-01-30T03:26:37;101285.03;;;7.45
82297;BMP280;71899;51.992;8.648;2024-01-30T03:29:03;101277.66;;;7.60
82297;BMP280;71899;51.992;8.648;2024-01-30T03:31:29;101286.00;;;7.69
82297;BMP280;71899;51.992;8.648;2024-01-30T03:33:58;101281.16;;;7.59
82297;BMP280;71899;51.992;8.648;2024-01-30T03:36:23;101280.47;;;7.78
82297;BMP280;71899;51.992;8.648;2024-01-30T03:38:48;101271.56;;;7.85
82297;BMP280;71899;51.992;8.648;2024-01-30T03:41:14;101279.00;;;7.96
82297;BMP280;71899;51.992;8.648;2024-01-30T03:43:40;101272.03;;;7.96
82297;BMP280;71899;51.992;8.648;2024-01-30T03:46:05;101271.16;;;7.97
82297;BMP280;71899;51.992;8.648;2024-01-30T03:48:31;101272.00;;;7.98
82297;BMP280;71899;51.992;8.648;2024-01-30T03:50:56;101271.19;;;7.96
82297;BMP280;71899;51.992;8.648;2024-01-30T03:53:22;101275.97;;;8.08
82297;BMP280;71899;51.992;8.648;2024-01-30T03:55:47;101269.41;;;7.98
82297;BMP280;71899;51.992;8.648;2024-01-30T03:58:12;101271.66;;;8.07
82297;BMP280;71899;51.992;8.648;2024-01-30T04:00:37;101273.38;;;8.08
82297;BMP280;71899;51.992;8.648;2024-01-30T04:03:03;101272.47;;;8.09
82297;BMP280;71899;51.992;8.648;2024-01-30T04:05:28;101261.88;;;8.14
82297;BMP280;71899;51.992;8.648;2024-01-30T04:07:53;101263.25;;;8.24
82297;BMP280;71899;51.992;8.648;2024-01-30T04:10:19;101260.34;;;8.08
82297;BMP280;71899;51.992;8.648;2024-01-30T04:12:47;101257.00;;;8.29
82297;BMP280;71899;51.992;8.648;2024-01-30T04:15:12;101250.25;;;8.24
82297;BMP280;71899;51.992;8.648;2024-01-30T04:17:39;101259.00;;;8.21
82297;BMP280;71899;51.992;8.648;2024-01-30T04:20:06;101257.19;;;8.23
82297;BMP280;71899;51.992;8.648;2024-01-30T04:22:31;101259.38;;;8.35
82297;BMP280;71899;51.992;8.648;2024-01-30T04:25:00;101255.84;;;8.13
82297;BMP280;71899;51.992;8.648;2024-01-30T04:27:34;101254.25;;;8.09
82297;BMP280;71899;51.992;8.648;2024-01-30T04:29:59;101255.66;;;8.18
82297;BMP280;71899;51.992;8.648;2024-01-30T04:32:24;101253.00;;;8.19
82297;BMP280;71899;51.992;8.648;2024-01-30T04:34:50;101257.94;;;8.27
82297;BMP280;71899;51.992;8.648;2024-01-30T04:37:15;101258.25;;;8.18
82297;BMP280;71899;51.992;8.648;2024-01-30T04:39:41;101251.25;;;8.20
82297;BMP280;71899;51.992;8.648;2024-01-30T04:42:09;101252.69;;;8.28
82297;BMP280;71899;51.992;8.648;2024-01-30T04:44:35;101257.19;;;8.23
82297;BMP280;71899;51.992;8.648;2024-01-30T04:47:00;101250.69;;;8.35
82297;BMP280;71899;51.992;8.648;2024-01-30T04:49:27;101247.78;;;8.44
82297;BMP280;71899;51.992;8.648;2024-01-30T04:51:52;101249.47;;;8.45
82297;BMP280;71899;51.992;8.648;2024-01-30T04:54:18;101252.41;;;8.36
82297;BMP280;71899;51.992;8.648;2024-01-30T04:56:43;101255.50;;;8.45
82297;BMP280;71899;51.992;8.648;2024-01-30T04:59:08;101248.91;;;8.37
82297;BMP280;71899;51.992;8.648;2024-01-30T05:01:34;101257.31;;;8.45
82297;BMP280;71899;51.992;8.648;2024-01-30T05:03:59;101255.50;;;8.45
82297;BMP280;71899;51.992;8.648;2024-01-30T05:06:27;101264.38;;;8.41
82297;BMP280;71899;51.992;8.648;2024-01-30T05:08:53;101248.09;;;8.35
82297;BMP280;71899;51.992;8.648;2024-01-30T05:11:18;101260.66;;;8.49
82297;BMP280;71899;51.992;8.648;2024-01-30T05:13:44;101263.34;;;8.45
82297;BMP280;71899;51.992;8.648;2024-01-30T05:16:09;101262.00;;;8.59
82297;BMP280;71899;51.992;8.648;2024-01-30T05:18:35;101261.47;;;8.49
82297;BMP280;71899;51.992;8.648;2024-01-30T05:21:00;101257.84;;;8.53
82297;BMP280;71899;51.992;8.648;2024-01-30T05:23:25;101255.97;;;8.57
82297;BMP280;71899;51.992;8.648;2024-01-30T05:25:51;101257.69;;;8.58
82297;BMP280;71899;51.992;8.648;2024-01-30T05:28:16;101253.06;;;8.64
82297;BMP280;71899;51.992;8.648;2024-01-30T05:30:41;101252.41;;;8.59
82297;BMP280;71899;51.992;8.648;2024-01-30T05:33:07;101248.78;;;8.63
82297;BMP280;71899;51.992;8.648;2024-01-30T05:35:32;101240.84;;;8.66
82297;BMP280;71899;51.992;8.648;2024-01-30T05:37:57;101241.28;;;8.77
82297;BMP280;71899;51.992;8.648;2024-01-30T05:40:22;101242.34;;;8.72
82297;BMP280;71899;51.992;8.648;2024-01-30T05:42:48;101241.75;;;8.65
82297;BMP280;71899;51.992;8.648;2024-01-30T05:45:13;101238.94;;;8.48
82297;BMP280;71899;51.992;8.648;2024-01-30T05:47:39;101248.88;;;8.60
82297;BMP280;71899;51.992;8.648;2024-01-30T05:50:04;101242.72;;;8.63
82297;BMP280;71899;51.992;8.648;2024-01-30T05:52:30;101242.31;;;8.73
82297;BMP280;71899;51.992;8.648;2024-01-30T05:54:55;101242.31;;;8.73
82297;BMP280;71899;51.992;8.648;2024-01-30T05:57:20;101240.72;;;8.69
82297;BMP280;71899;51.992;8.648;2024-01-30T05:59:46;101240.59;;;8.72
82297;BMP280;71899;51.992;8.648;2024-01-30T06:02:13;101237.31;;;8.67
82297;BMP280;71899;51.992;8.648;2024-01-30T06:04:38;101230.22;;;8.71
82297;BMP280;71899;51.992;8.648;2024-01-30T06:07:04;101228.78;;;8.85
82297;BMP280;71899;51.992;8.648;2024-01-30T06:09:31;101238.00;;;8.72
82297;BMP280;71899;51.992;8.648;2024-01-30T06:11:56;101239.91;;;8.67
82297;BMP280;71899;51.992;8.648;2024-01-30T06:14:22;101236.38;;;8.70
82297;BMP280;71899;51.992;8.648;2024-01-30T06:16:47;101230.19;;;8.72
82297;BMP280;71899;51.992;8.648;2024-01-30T06:19:12;101240.28;;;8.58
82297;BMP280;71899;51.992;8.648;2024-01-30T06:21:38;101242.81;;;8.60
82297;BMP280;71899;51.992;8.648;2024-01-30T06:24:04;101233.94;;;8.65
82297;BMP280;71899;51.992;8.648;2024-01-30T06:26:29;101239.84;;;8.47
82297;BMP280;71899;51.992;8.648;2024-01-30T06:28:55;101237.97;;;8.51
82297;BMP280;71899;51.992;8.648;2024-01-30T06:31:20;101228.19;;;8.34
82297;BMP280;71899;51.992;8.648;2024-01-30T06:33:49;101229.38;;;8.49
82297;BMP280;71899;51.992;8.648;2024-01-30T06:36:14;101224.06;;;8.50
82297;BMP280;71899;51.992;8.648;2024-01-30T06:38:40;101233.19;;;8.62
82297;BMP280;71899;51.992;8.648;2024-01-30T06:41:06;101232.06;;;8.69
82297;BMP280;71899;51.992;8.648;2024-01-30T06:43:31;101233.38;;;8.57
82297;BMP280;71899;51.992;8.648;2024-01-30T06:45:56;101234.16;;;8.59
82297;BMP280;71899;51.992;8.648;2024-01-30T06:48:22;101234.09;;;8.61
82297;BMP280;71899;51.992;8.648;2024-01-30T06:50:47;101238.28;;;8.65
82297;BMP280;71899;51.992;8.648;2024-01-30T06:53:14;101236.94;;;8.55
82297;BMP280;71899;51.992;8.648;2024-01-30T06:55:39;101237.84;;;8.54
82297;BMP280;71899;51.992;8.648;2024-01-30T06:58:05;101237.50;;;8.63
82297;BMP280;71899;51.992;8.648;2024-01-30T07:00:30;101243.50;;;8.65
82297;BMP280;71899;51.992;8.648;2024-01-30T07:02:56;101239.56;;;8.55
82297;BMP280;71899;51.992;8.648;2024-01-30T07:05:21;101240.00;;;8.66
82297;BMP280;71899;51.992;8.648;2024-01-30T07:07:47;101233.06;;;8.65
82297;BMP280;71899;51.992;8.648;2024-01-30T07:10:12;101232.88;;;8.48
82297;BMP280;71899;51.992;8.648;2024-01-30T07:12:37;101225.78;;;8.51
82297;BMP280;71899;51.992;8.648;2024-01-30T07:15:03;101223.19;;;8.51
82297;BMP280;71899;51.992;8.648;2024-01-30T07:17:29;101222.22;;;8.75
82297;BMP280;71899;51.992;8.648;2024-01-30T07:19:54;101224.66;;;8.80
82297;BMP280;71899;51.992;8.648;2024-01-30T07:22:19;101227.13;;;8.61
82297;BMP280;71899;51.992;8.648;2024-01-30T07:24:45;101220.47;;;8.98
82297;BMP280;71899;51.992;8.648;2024-01-30T07:27:12;101227.44;;;9.19
82297;BMP280;71899;51.992;8.648;2024-01-30T07:29:38;101228.44;;;9.16
82297;BMP280;71899;51.992;8.648;2024-01-30T07:32:03;101225.19;;;9.10
82297;BMP280;71899;51.992;8.648;2024-01-30T07:34:29;101226.28;;;9.26
82297;BMP280;71899;51.992;8.648;2024-01-30T07:36:54;101219.44;;;9.23
82297;BMP280;71899;51.992;8.648;2024-01-30T07:39:19;101220.22;;;9.25
82297;BMP280;71899;51.992;8.648;2024-01-30T07:41:45;101217.25;;;9.34
82297;BMP280;71899;51.992;8.648;2024-01-30T07:44:10;101220.56;;;9.38
82297;BMP280;71899;51.992;8.648;2024-01-30T07:46:35;101222.31;;;9.58
82297;BMP280;71899;51.992;8.648;2024-01-30T07:49:00;101217.88;;;9.60
82297;BMP280;71899;51.992;8.648;2024-01-30T07:51:26;101227.88;;;9.70
82297;BMP280;71899;51.992;8.648;2024-01-30T07:53:53;101227.22;;;9.65
82297;BMP280;71899;51.992;8.648;2024-01-30T07:56:18;101228.34;;;9.80
82297;BMP280;71899;51.992;8.648;2024-01-30T07:58:44;101235.69;;;9.70
82297;BMP280;71899;51.992;8.648;2024-01-30T08:01:10;101230.28;;;9.75
82297;BMP280;71899;51.992;8.648;2024-01-30T08:03:35;101234.13;;;9.86
82297;BMP280;71899;51.992;8.648;2024-01-30T08:06:02;101233.44;;;9.83
82297;BMP280;71899;51.992;8.648;2024-01-30T08:08:27;101225.88;;;9.95
82297;BMP280;71899;51.992;8.648;2024-01-30T08:10:53;101226.81;;;9.94
82297;BMP280;71899;51.992;8.648;2024-01-30T08:13:18;101227.53;;;9.98
82297;BMP280;71899;51.992;8.648;2024-01-30T08:15:43;101235.50;;;10.15
82297;BMP280;71899;51.992;8.648;2024-01-30T08:18:09;101224.28;;;10.32
82297;BMP280;71899;51.992;8.648;2024-01-30T08:20:34;101221.88;;;10.27
82297;BMP280;71899;51.992;8.648;2024-01-30T08:23:00;101219.16;;;10.30
82297;BMP280;71899;51.992;8.648;2024-01-30T08:25:25;101218.22;;;10.50
82297;BMP280;71899;51.992;8.648;2024-01-30T08:27:51;101206.34;;;10.43
82297;BMP280;71899;51.992;8.648;2024-01-30T08:30:16;101211.28;;;10.49
82297;BMP280;71899;51.992;8.648;2024-01-30T08:32:42;101218.78;;;10.57
82297;BMP280;71899;51.992;8.648;2024-01-30T08:35:07;101227.38;;;10.77
82297;BMP280;71899;51.992;8.648;2024-01-30T08:37:33;101219.22;;;10.66
82297;BMP280;71899;51.992;8.648;2024-01-30T08:39:59;101217.34;;;10.87
82297;BMP280;71899;51.992;8.648;2024-01-30T08:42:24;101225.69;;;10.95
82297;BMP280;71899;51.992;8.648;2024-01-30T08:44:50;101231.63;;;10.99
82297;BMP280;71899;51.992;8.648;2024-01-30T08:47:17;101232.78;;;11.10
82297;BMP280;71899;51.992;8.648;2024-01-30T08:49:44;101233.69;;;11.62
82297;BMP280;71899;51.992;8.648;2024-01-30T08:52:10;101239.09;;;11.59
82297;BMP280;71899;51.992;8.648;2024-01-30T08:54:35;101238.63;;;11.51
82297;BMP280;71899;51.992;8.648;2024-01-30T08:57:01;101243.22;;;11.46
82297;BMP280;71899;51.992;8.648;2024-01-30T08:59:26;101248.06;;;11.36
82297;BMP280;71899;51.992;8.648;2024-01-30T09:01:51;101241.66;;;11.42
82297;BMP280;71899;51.992;8.648;2024-01-30T09:04:20;101239.50;;;11.16
82297;BMP280;71899;51.992;8.648;2024-01-30T09:06:46;101240.44;;;11.32
82297;BMP280;71899;51.992;8.648;2024-01-30T09:09:11;101239.75;;;11.45
82297;BMP280;71899;51.992;8.648;2024-01-30T09:11:36;101229.19;;;11.64
82297;BMP280;71899;51.992;8.648;2024-01-30T09:14:02;101243.53;;;11.57
82297;BMP280;71899;51.992;8.648;2024-01-30T09:16:27;101238.63;;;11.51
82297;BMP280;71899;51.992;8.648;2024-01-30T09:18:53;101232.31;;;11.72
82297;BMP280;71899;51.992;8.648;2024-01-30T09:21:19;101241.94;;;11.72
82297;BMP280;71899;51.992;8.648;2024-01-30T09:23:44;101233.53;;;11.82
82297;BMP280;71899;51.992;8.648;2024-01-30T09:26:09;101237.69;;;11.86
82297;BMP280;71899;51.992;8.648;2024-01-30T09:28:35;101244.91;;;12.16
82297;BMP280;71899;51.992;8.648;2024-01-30T09:31:00;101238.41;;;12.23
82297;BMP280;71899;51.992;8.648;2024-01-30T09:33:26;101242.09;;;12.19
82297;BMP280;71899;51.992;8.648;2024-01-30T09:35:51;101243.75;;;12.37
82297;BMP280;71899;51.992;8.648;2024-01-30T09:38:16;101245.00;;;12.46
82297;BMP280;71899;51.992;8.648;2024-01-30T09:40:42;101235.50;;;12.27
82297;BMP280;71899;51.992;8.648;2024-01-30T09:43:07;101242.63;;;12.25
82297;BMP280;71899;51.992;8.648;2024-01-30T09:45:33;101236.28;;;12.29
82297;BMP280;71899;51.992;8.648;2024-01-30T09:48:00;101235.88;;;12.53
82297;BMP280;71899;51.992;8.648;2024-01-30T09:50:26;101245.38;;;12.71
82297;BMP280;71899;51.992;8.648;2024-01-30T09:52:53;101241.47;;;12.78
82297;BMP280;71899;51.992;8.648;2024-01-30T09:55:20;101240.91;;;12.73
82297;BMP280;71899;51.992;8.648;2024-01-30T09:57:45;101241.31;;;12.65
82297;BMP280;71899;51.992;8.648;2024-01-30T10:00:12;101238.25;;;12.88
82297;BMP280;71899;51.992;8.648;2024-01-30T10:02:38;101223.19;;;13.08
82297;BMP280;71899;51.992;8.648;2024-01-30T10:05:04;101229.72;;;12.85
82297;BMP280;71899;51.992;8.648;2024-01-30T10:07:31;101232.09;;;12.74
82297;BMP280;71899;51.992;8.648;2024-01-30T10:09:56;101237.75;;;12.82
82297;BMP280;71899;51.992;8.648;2024-01-30T10:12:30;101236.25;;;12.93
82297;BMP280;71899;51.992;8.648;2024-01-30T10:14:56;101237.53;;;12.86
82297;BMP280;71899;51.992;8.648;2024-01-30T10:17:24;101242.09;;;12.83
82297;BMP280;71899;51.992;8.648;2024-01-30T10:19:50;101240.75;;;12.76
82297;BMP280;71899;51.992;8.648;2024-01-30T10:22:16;101239.72;;;12.78
82297;BMP280;71899;51.992;8.648;2024-01-30T10:24:42;101235.41;;;12.62
82297;BMP280;71899;51.992;8.648;2024-01-30T10:27:08;101235.31;;;12.95
82297;BMP280;71899;51.992;8.648;2024-01-30T10:29:33;101239.53;;;12.81
82297;BMP280;71899;51.992;8.648;2024-01-30T10:32:03;101231.56;;;12.99
82297;BMP280;71899;51.992;8.648;2024-01-30T10:34:29;101234.72;;;13.21
82297;BMP280;71899;51.992;8.648;2024-01-30T10:37:08;101240.38;;;13.29
82297;BMP280;71899;51.992;8.648;2024-01-30T10:39:44;101235.94;;;13.59
82297;BMP280;71899;51.992;8.648;2024-01-30T10:42:14;101231.47;;;13.31
82297;BMP280;71899;51.992;8.648;2024-01-30T10:45:08;101236.47;;;13.20
82297;BMP280;71899;51.992;8.648;2024-01-30T10:47:37;101224.53;;;13.30
82297;BMP280;71899;51.992;8.648;2024-01-30T10:50:04;101219.25;;;13.60
82297;BMP280;71899;51.992;8.648;2024-01-30T10:52:31;101210.91;;;13.54
82297;BMP280;71899;51.992;8.648;2024-01-30T10:54:58;101205.19;;;13.31
82297;BMP280;71899;51.992;8.648;2024-01-30T10:57:24;101211.97;;;13.65
82297;BMP280;71899;51.992;8.648;2024-01-30T10:59:56;101210.53;;;13.60
82297;BMP280;71899;51.992;8.648;2024-01-30T11:02:23;101196.25;;;13.50
82297;BMP280;71899;51.992;8.648;2024-01-30T11:04:57;101185.50;;;13.68
82297;BMP280;71899;51.992;8.648;2024-01-30T11:07:28;101185.78;;;13.92
82297;BMP280;71899;51.992;8.648;2024-01-30T11:10:00;101195.44;;;14.20
82297;BMP280;71899;51.992;8.648;2024-01-30T11:12:30;101184.66;;;13.96
82297;BMP280;71899;51.992;8.648;2024-01-30T11:15:05;101188.53;;;14.05
82297;BMP280;71899;51.992;8.648;2024-01-30T11:17:44;101172.06;;;14.44
82297;BMP280;71899;51.992;8.648;2024-01-30T11:20:19;101168.06;;;14.65
82297;BMP280;71899;51.992;8.648;2024-01-30T11:22:46;101176.69;;;14.67
82297;BMP280;71899;51.992;8.648;2024-01-30T11:25:15;101184.75;;;14.78
82297;BMP280;71899;51.992;8.648;2024-01-30T11:27:45;101177.09;;;14.61
82297;BMP280;71899;51.992;8.648;2024-01-30T11:30:21;101177.38;;;14.56
82297;BMP280;71899;51.992;8.648;2024-01-30T11:33:01;101183.69;;;14.54
82297;BMP280;71899;51.992;8.648;2024-01-30T11:35:30;101182.03;;;14.79
82297;BMP280;71899;51.992;8.648;2024-01-30T11:37:57;101173.09;;;15.09
82297;BMP280;71899;51.992;8.648;2024-01-30T11:40:24;101167.09;;;15.19
82297;BMP280;71899;51.992;8.648;2024-01-30T11:42:53;101169.88;;;15.43
82297;BMP280;71899;51.992;8.648;2024-01-30T11:45:19;101162.00;;;15.68
82297;BMP280;71899;51.992;8.648;2024-01-30T11:47:44;101164.97;;;15.51
82297;BMP280;71899;51.992;8.648;2024-01-30T11:50:10;101172.88;;;15.51
82297;BMP280;71899;51.992;8.648;2024-01-30T11:52:36;101171.38;;;15.08
82297;BMP280;71899;51.992;8.648;2024-01-30T11:55:02;101163.75;;;15.30
82297;BMP280;71899;51.992;8.648;2024-01-30T11:57:28;101170.88;;;15.15
82297;BMP280;71899;51.992;8.648;2024-01-30T11:59:53;101168.75;;;15.08
82297;BMP280;71899;51.992;8.648;2024-01-30T12:02:18;101156.16;;;14.99
82297;BMP280;71899;51.992;8.648;2024-01-30T12:04:44;101164.47;;;15.19
82297;BMP280;71899;51.992;8.648;2024-01-30T12:07:10;101161.94;;;15.30
82297;BMP280;71899;51.992;8.648;2024-01-30T12:09:35;101153.50;;;15.38
82297;BMP280;71899;51.992;8.648;2024-01-30T12:12:00;101150.66;;;15.28
82297;BMP280;71899;51.992;8.648;2024-01-30T12:14:26;101170.44;;;15.09
82297;BMP280;71899;51.992;8.648;2024-01-30T12:16:51;101161.97;;;14.64
82297;BMP280;71899;51.992;8.648;2024-01-30T12:19:26;101160.22;;;14.51
82297;BMP280;71899;51.992;8.648;2024-01-30T12:21:57;101171.69;;;14.21
82297;BMP280;71899;51.992;8.648;2024-01-30T12:24:25;101175.34;;;14.47
82297;BMP280;71899;51.992;8.648;2024-01-30T12:26:50;101177.03;;;14.34
82297;BMP280;71899;51.992;8.648;2024-01-30T12:29:17;101168.75;;;14.54
82297;BMP280;71899;51.992;8.648;2024-01-30T12:31:42;101187.66;;;14.04
82297;BMP280;71899;51.992;8.648;2024-01-30T12:34:09;101181.28;;;14.22
82297;BMP280;71899;51.992;8.648;2024-01-30T12:36:34;101192.16;;;13.88
82297;BMP280;71899;51.992;8.648;2024-01-30T12:38:59;101190.50;;;13.87
82297;BMP280;71899;51.992;8.648;2024-01-30T12:41:26;101182.38;;;13.62
82297;BMP280;71899;51.992;8.648;2024-01-30T12:43:55;101198.47;;;13.85
82297;BMP280;71899;51.992;8.648;2024-01-30T12:46:25;101200.91;;;13.88
82297;BMP280;71899;51.992;8.648;2024-01-30T12:48:50;101197.41;;;14.02
82297;BMP280;71899;51.992;8.648;2024-01-30T12:51:16;101201.56;;;14.06
82297;BMP280;71899;51.992;8.648;2024-01-30T12:53:41;101206.06;;;13.90
82297;BMP280;71899;51.992;8.648;2024-01-30T12:56:06;101201.22;;;13.98
82297;BMP280;71899;51.992;8.648;2024-01-30T12:58:31;101200.41;;;13.68
82297;BMP280;71899;51.992;8.648;2024-01-30T13:00:57;101205.69;;;13.82
82297;BMP280;71899;51.992;8.648;2024-01-30T13:03:23;101210.56;;;13.88
82297;BMP280;71899;51.992;8.648;2024-01-30T13:05:48;101198.56;;;13.84
82297;BMP280;71899;51.992;8.648;2024-01-30T13:08:13;101204.50;;;14.02
82297;BMP280;71899;51.992;8.648;2024-01-30T13:10:38;101210.69;;;14.01
82297;BMP280;71899;51.992;8.648;2024-01-30T13:13:04;101206.06;;;14.04
82297;BMP280;71899;51.992;8.648;2024-01-30T13:15:29;101204.50;;;13.87
82297;BMP280;71899;51.992;8.648;2024-01-30T13:17:54;101219.78;;;13.95
82297;BMP280;71899;51.992;8.648;2024-01-30T13:20:20;101216.13;;;14.12
82297;BMP280;71899;51.992;8.648;2024-01-30T13:22:49;101220.06;;;14.05
82297;BMP280;71899;51.992;8.648;2024-01-30T13:25:17;101221.47;;;14.10
82297;BMP280;71899;51.992;8.648;2024-01-30T13:27:42;101224.09;;;14.53
82297;BMP280;71899;51.992;8.648;2024-01-30T13:30:08;101214.78;;;14.61
82297;BMP280;71899;51.992;8.648;2024-01-30T13:32:34;101208.69;;;14.61
82297;BMP280;71899;51.992;8.648;2024-01-30T13:35:00;101216.97;;;14.55
82297;BMP280;71899;51.992;8.648;2024-01-30T13:37:25;101218.22;;;14.35
82297;BMP280;71899;51.992;8.648;2024-01-30T13:39:50;101207.00;;;14.46
82297;BMP280;71899;51.992;8.648;2024-01-30T13:42:16;101210.28;;;14.49
82297;BMP280;71899;51.992;8.648;2024-01-30T13:44:41;101206.22;;;14.72
82297;BMP280;71899;51.992;8.648;2024-01-30T13:47:08;101206.69;;;14.64
82297;BMP280;71899;51.992;8.648;2024-01-30T13:49:34;101210.97;;;14.38
82297;BMP280;71899;51.992;8.648;2024-01-30T13:51:59;101210.56;;;14.30
82297;BMP280;71899;51.992;8.648;2024-01-30T13:54:24;101203.44;;;14.18
82297;BMP280;71899;51.992;8.648;2024-01-30T13:56:50;101209.38;;;14.08
82297;BMP280;71899;51.992;8.648;2024-01-30T13:59:15;101213.31;;;14.15